createdAt,value
2023-03-02T00:01:10.587Z,-0.30
2023-03-02T00:03:40.656Z,-0.20
2023-03-02T00:06:08.843Z,-0.30
2023-03-02T00:08:36.871Z,0.00
2023-03-02T00:11:03.611Z,-0.40
2023-03-02T00:13:31.869Z,0.30
2023-03-02T00:15:58.746Z,-0.40
2023-03-02T00:18:25.538Z,-0.60
2023-03-02T00:20:52.236Z,-0.50
2023-03-02T00:23:19.100Z,-0.50
2023-03-02T00:25:45.833Z,-0.50
2023-03-02T00:28:12.505Z,-0.80
2023-03-02T00:30:39.527Z,-0.80
2023-03-02T00:33:06.166Z,-0.60
2023-03-02T00:35:38.035Z,-0.80
2023-03-02T00:38:04.774Z,-0.80
2023-03-02T00:40:31.427Z,-0.70
2023-03-02T00:42:58.108Z,-0.80
2023-03-02T00:45:24.813Z,-0.80
2023-03-02T00:47:51.533Z,-0.90
2023-03-02T00:50:18.253Z,-0.90
2023-03-02T00:52:44.917Z,-0.90
2023-03-02T00:55:11.633Z,-0.90
2023-03-02T01:00:05.974Z,-1.00
2023-03-02T01:07:28.318Z,-1.30
2023-03-02T01:09:55.023Z,-1.40
2023-03-02T01:12:21.842Z,-1.50
2023-03-02T01:14:49.081Z,-1.40
2023-03-02T01:17:15.753Z,-1.30
2023-03-02T01:19:43.221Z,-1.40
2023-03-02T01:22:10.220Z,-1.40
2023-03-02T01:27:04.137Z,-1.50
2023-03-02T01:29:30.783Z,-1.40
2023-03-02T01:31:57.619Z,-1.40
2023-03-02T01:34:24.489Z,-1.40
2023-03-02T01:36:51.153Z,-1.40
2023-03-02T01:39:17.962Z,-1.40
2023-03-02T01:41:45.939Z,-1.30
2023-03-02T01:44:45.817Z,-1.40
2023-03-02T01:47:25.597Z,-1.30
2023-03-02T01:50:03.047Z,-1.40
2023-03-02T01:52:33.442Z,-1.50
2023-03-02T01:55:03.771Z,-1.70
2023-03-02T01:57:34.143Z,-1.70
2023-03-02T02:00:08.503Z,-1.70
2023-03-02T02:02:36.427Z,-1.60
2023-03-02T02:05:04.228Z,-1.60
2023-03-02T02:07:31.392Z,-1.70
2023-03-02T02:09:58.783Z,-1.70
2023-03-02T02:12:25.615Z,-1.60
2023-03-02T02:14:52.375Z,-1.50
2023-03-02T02:17:19.806Z,-1.60
2023-03-02T02:20:24.192Z,-1.80
2023-03-02T02:23:08.807Z,-1.70
2023-03-02T02:25:40.178Z,-1.70
2023-03-02T02:28:12.476Z,-1.70
2023-03-02T02:30:41.414Z,-1.80
2023-03-02T02:33:14.871Z,-1.70
2023-03-02T02:35:42.149Z,-1.70
2023-03-02T02:38:11.537Z,-1.70
2023-03-02T02:41:00.177Z,-1.60
2023-03-02T02:43:30.665Z,-1.50
2023-03-02T02:45:58.980Z,-1.60
2023-03-02T02:48:31.063Z,-1.70
2023-03-02T02:51:03.248Z,-1.50
2023-03-02T02:53:35.040Z,-1.70
2023-03-02T02:56:02.893Z,-1.70
2023-03-02T02:58:39.632Z,-1.80
2023-03-02T03:01:06.895Z,-1.80
2023-03-02T03:03:37.316Z,-1.80
2023-03-02T03:06:07.613Z,-1.90
2023-03-02T03:08:43.404Z,-2.00
2023-03-02T03:11:15.759Z,-1.90
2023-03-02T03:13:44.000Z,-1.90
2023-03-02T03:16:15.295Z,-1.80
2023-03-02T03:18:44.724Z,-1.70
2023-03-02T03:21:11.500Z,-1.70
2023-03-02T03:23:38.677Z,-1.60
2023-03-02T03:26:06.168Z,-1.50
2023-03-02T03:28:33.759Z,-1.50
2023-03-02T03:31:00.500Z,-1.50
2023-03-02T03:33:27.672Z,-1.50
2023-03-02T03:35:54.588Z,-1.40
2023-03-02T03:38:21.286Z,-1.40
2023-03-02T03:40:47.931Z,-1.30
2023-03-02T03:43:15.200Z,-1.30
2023-03-02T03:45:41.896Z,-1.50
2023-03-02T03:48:08.849Z,-1.20
2023-03-02T03:50:36.440Z,-1.50
2023-03-02T03:53:03.986Z,-1.60
2023-03-02T03:55:31.108Z,-1.50
2023-03-02T03:57:57.760Z,-1.10
2023-03-02T04:00:24.481Z,-1.70
2023-03-02T04:02:51.380Z,-1.30
2023-03-02T04:05:18.489Z,-1.70
2023-03-02T04:07:45.209Z,-1.70
2023-03-02T04:10:12.315Z,-1.60
2023-03-02T04:12:41.243Z,-1.80
2023-03-02T04:15:13.354Z,-1.80
2023-03-02T04:17:40.159Z,-1.80
2023-03-02T04:20:10.450Z,-2.00
2023-03-02T04:22:37.333Z,-1.90
2023-03-02T04:25:05.080Z,-1.90
2023-03-02T04:27:31.767Z,-1.90
2023-03-02T04:29:58.421Z,-2.00
2023-03-02T04:32:25.138Z,-1.90
2023-03-02T04:34:51.794Z,-1.90
2023-03-02T04:37:18.476Z,-1.90
2023-03-02T04:39:47.347Z,-2.00
2023-03-02T04:42:14.094Z,-1.90
2023-03-02T04:44:40.786Z,-2.00
2023-03-02T04:47:07.459Z,-1.70
2023-03-02T04:49:34.114Z,-1.70
2023-03-02T04:52:00.838Z,-1.80
2023-03-02T04:54:27.888Z,-1.80
2023-03-02T04:56:55.647Z,-1.80
2023-03-02T04:59:25.998Z,-1.80
2023-03-02T05:01:58.944Z,-1.80
2023-03-02T05:04:27.158Z,-1.90
2023-03-02T05:06:54.335Z,-1.90
2023-03-02T05:09:27.067Z,-1.90
2023-03-02T05:11:58.687Z,-1.80
2023-03-02T05:14:26.570Z,-1.70
2023-03-02T05:16:54.007Z,-1.90
2023-03-02T05:19:20.799Z,-1.90
2023-03-02T05:21:47.514Z,-1.90
2023-03-02T05:24:14.735Z,-1.80
2023-03-02T05:26:42.058Z,-1.80
2023-03-02T05:29:08.736Z,-1.30
2023-03-02T05:31:41.372Z,-1.80
2023-03-02T05:34:10.129Z,-1.70
2023-03-02T05:36:37.753Z,-1.50
2023-03-02T05:39:05.827Z,-1.70
2023-03-02T05:41:32.533Z,-1.70
2023-03-02T05:43:59.180Z,-1.50
2023-03-02T05:46:26.562Z,-1.40
2023-03-02T05:48:53.873Z,-1.30
2023-03-02T05:51:20.597Z,-1.50
2023-03-02T05:53:47.288Z,-1.40
2023-03-02T05:56:14.082Z,-1.40
2023-03-02T05:58:40.797Z,-1.40
2023-03-02T06:01:10.174Z,-1.40
2023-03-02T06:03:37.143Z,-1.50
2023-03-02T06:06:03.944Z,-1.50
2023-03-02T06:08:30.832Z,-1.50
2023-03-02T06:10:57.677Z,-1.40
2023-03-02T06:13:24.390Z,-1.40
2023-03-02T06:15:51.063Z,-1.30
2023-03-02T06:18:17.853Z,-1.30
2023-03-02T06:20:44.546Z,-1.40
2023-03-02T06:23:11.982Z,-1.00
2023-03-02T06:25:41.242Z,-1.10
2023-03-02T06:28:07.917Z,-0.80
2023-03-02T06:30:34.599Z,-0.60
2023-03-02T06:33:01.660Z,-0.80
2023-03-02T06:35:29.116Z,-0.80
2023-03-02T06:40:22.994Z,-0.60
2023-03-02T06:42:50.106Z,-0.20
2023-03-02T06:45:16.919Z,-0.30
2023-03-02T06:47:43.624Z,-0.20
2023-03-02T06:50:10.961Z,-0.20
2023-03-02T06:52:37.675Z,-0.10
2023-03-02T06:55:04.993Z,0.00
2023-03-02T06:57:34.238Z,0.10
2023-03-02T07:00:02.597Z,0.20
2023-03-02T07:02:29.282Z,0.30
2023-03-02T07:04:55.968Z,0.40
2023-03-02T07:07:22.618Z,0.50
2023-03-02T07:09:49.274Z,0.70
2023-03-02T07:12:15.919Z,0.80
2023-03-02T07:14:42.575Z,0.80
2023-03-02T07:17:09.302Z,0.90
2023-03-02T07:19:40.657Z,1.10
2023-03-02T07:22:07.678Z,1.30
2023-03-02T07:24:34.806Z,1.40
2023-03-02T07:27:01.536Z,1.50
2023-03-02T07:29:28.254Z,1.70
2023-03-02T07:34:24.817Z,1.80
2023-03-02T07:36:52.020Z,2.10
2023-03-02T07:39:19.215Z,2.20
2023-03-02T07:41:46.384Z,2.40
2023-03-02T07:46:40.237Z,2.80
2023-03-02T07:49:06.937Z,2.90
2023-03-02T07:51:33.829Z,3.00
2023-03-02T07:54:02.851Z,3.10
2023-03-02T07:56:29.638Z,3.20
2023-03-02T07:58:56.381Z,3.30
2023-03-02T08:01:23.190Z,3.40
2023-03-02T08:03:49.952Z,3.40
2023-03-02T08:06:17.314Z,3.60
2023-03-02T08:08:44.080Z,3.90
2023-03-02T08:11:13.824Z,4.10
2023-03-02T08:18:38.080Z,3.60
2023-03-02T08:21:11.363Z,4.70
2023-03-02T08:23:38.111Z,4.60
2023-03-02T08:28:31.893Z,5.00
2023-03-02T08:33:41.449Z,5.40
2023-03-02T08:38:41.859Z,5.30
2023-03-02T08:41:11.980Z,4.40
2023-03-02T08:43:39.011Z,7.30
2023-03-02T08:46:06.200Z,5.00
2023-03-02T08:48:33.271Z,5.60
2023-03-02T08:54:12.581Z,9.30
2023-03-02T08:56:40.261Z,7.30
2023-03-02T09:01:38.626Z,6.30
2023-03-02T09:04:08.065Z,8.20
2023-03-02T09:06:38.465Z,6.20
2023-03-02T09:09:05.953Z,5.90
2023-03-02T09:11:33.711Z,5.60
2023-03-02T09:14:01.048Z,6.30
2023-03-02T09:18:54.991Z,7.00
2023-03-02T09:21:22.504Z,5.80
2023-03-02T09:23:53.594Z,5.40
2023-03-02T09:26:20.644Z,8.10
2023-03-02T09:28:47.400Z,6.70
2023-03-02T09:31:14.286Z,6.80
2023-03-02T09:33:41.195Z,8.70
2023-03-02T09:36:09.918Z,6.20
2023-03-02T09:38:36.609Z,7.90
2023-03-02T09:41:09.424Z,7.00
2023-03-02T09:44:24.873Z,8.20
2023-03-02T09:47:09.334Z,8.30
2023-03-02T09:50:00.569Z,8.50
2023-03-02T09:52:40.378Z,8.60
2023-03-02T09:55:18.410Z,8.80
2023-03-02T10:00:20.297Z,9.00
2023-03-02T10:02:50.021Z,9.10
2023-03-02T10:05:39.045Z,9.30
2023-03-02T10:08:11.393Z,9.20
2023-03-02T10:10:48.988Z,9.70
2023-03-02T10:13:42.232Z,9.80
2023-03-02T10:16:20.983Z,9.70
2023-03-02T10:19:05.650Z,9.90
2023-03-02T10:21:40.260Z,10.00
2023-03-02T10:24:36.143Z,10.00
2023-03-02T10:27:28.241Z,10.10
2023-03-02T10:30:25.514Z,10.40
2023-03-02T10:32:52.750Z,10.60
2023-03-02T10:35:24.837Z,11.00
2023-03-02T10:37:58.069Z,11.20
2023-03-02T10:40:30.960Z,11.40
2023-03-02T10:42:58.180Z,12.10
2023-03-02T10:50:31.511Z,12.50
2023-03-02T10:55:28.643Z,13.20
2023-03-02T11:03:06.199Z,13.80
2023-03-02T11:05:34.212Z,13.90
2023-03-02T11:08:08.564Z,13.80
2023-03-02T11:10:37.992Z,13.70
2023-03-02T11:13:20.551Z,14.00
2023-03-02T11:18:24.484Z,14.70
2023-03-02T11:20:56.172Z,14.80
2023-03-02T11:23:40.079Z,15.20
2023-03-02T11:26:23.093Z,14.80
2023-03-02T11:28:56.759Z,14.80
2023-03-02T11:31:41.537Z,14.90
2023-03-02T11:34:27.490Z,15.30
2023-03-02T11:37:13.402Z,15.80
2023-03-02T11:40:00.451Z,16.00
2023-03-02T11:42:32.071Z,15.90
2023-03-02T11:45:33.028Z,16.00
2023-03-02T11:48:06.884Z,16.20
2023-03-02T11:50:40.979Z,16.40
2023-03-02T11:53:15.684Z,16.60
2023-03-02T11:55:48.717Z,16.70
2023-03-02T11:58:21.742Z,16.90
2023-03-02T12:00:49.624Z,16.80
2023-03-02T12:03:16.245Z,17.30
2023-03-02T12:05:53.414Z,17.20
2023-03-02T12:08:20.015Z,17.20
2023-03-02T12:11:28.139Z,16.50
2023-03-02T12:13:54.752Z,17.90
2023-03-02T12:16:38.065Z,18.30
2023-03-02T12:19:16.925Z,17.70
2023-03-02T12:27:01.272Z,18.70
2023-03-02T12:29:40.065Z,18.40
2023-03-02T12:32:25.492Z,18.40
2023-03-02T12:35:00.147Z,19.00
2023-03-02T12:37:31.692Z,18.70
2023-03-02T12:40:22.782Z,19.00
2023-03-02T12:43:27.104Z,19.00
2023-03-02T12:46:16.027Z,18.50
2023-03-02T12:51:18.514Z,19.40
2023-03-02T12:58:52.637Z,20.30
2023-03-02T13:03:52.500Z,21.00
2023-03-02T13:11:40.571Z,21.50
2023-03-02T13:14:19.584Z,21.70
2023-03-02T13:20:10.563Z,21.60
2023-03-02T13:22:37.335Z,21.50
2023-03-02T13:27:35.050Z,21.80
2023-03-02T13:30:12.946Z,23.60
2023-03-02T13:32:43.140Z,23.60
2023-03-02T13:35:26.720Z,22.00
2023-03-02T13:38:24.205Z,22.90
2023-03-02T13:40:54.408Z,22.60
2023-03-02T13:43:34.125Z,22.80
2023-03-02T13:46:03.943Z,23.10
2023-03-02T13:48:31.365Z,22.90
2023-03-02T13:51:00.886Z,24.20
2023-03-02T13:53:30.140Z,22.50
2023-03-02T13:56:00.186Z,22.60
2023-03-02T13:58:29.649Z,22.50
2023-03-02T14:00:56.452Z,23.00
2023-03-02T14:03:29.413Z,23.10
2023-03-02T14:05:57.481Z,22.80
2023-03-02T14:08:24.266Z,22.70
2023-03-02T14:10:54.024Z,22.80
2023-03-02T14:13:25.279Z,22.90
2023-03-02T14:15:53.326Z,24.40
2023-03-02T14:18:28.728Z,22.20
2023-03-02T14:20:56.897Z,22.90
2023-03-02T14:23:26.328Z,24.10
2023-03-02T14:25:55.487Z,23.50
2023-03-02T14:28:29.911Z,24.90
2023-03-02T14:30:58.028Z,22.90
2023-03-02T14:33:25.633Z,23.70
2023-03-02T14:35:56.113Z,23.70
2023-03-02T14:38:25.948Z,23.60
2023-03-02T14:40:52.932Z,23.30
2023-03-02T14:43:21.260Z,22.60
2023-03-02T14:45:48.096Z,23.20
2023-03-02T14:48:15.056Z,22.80
2023-03-02T14:50:48.856Z,23.10
2023-03-02T14:53:22.953Z,24.20
2023-03-02T14:55:49.696Z,24.00
2023-03-02T14:58:24.058Z,24.10
2023-03-02T15:03:22.591Z,22.30
2023-03-02T15:06:00.941Z,21.80
2023-03-02T15:08:28.560Z,23.60
2023-03-02T15:10:55.390Z,23.20
2023-03-02T15:13:22.096Z,24.60
2023-03-02T15:15:49.947Z,24.30
2023-03-02T15:18:19.825Z,23.80
2023-03-02T15:20:46.989Z,24.00
2023-03-02T15:23:13.867Z,21.30
2023-03-02T15:25:40.974Z,23.00
2023-03-02T15:28:10.512Z,22.20
2023-03-02T15:30:38.798Z,23.70
2023-03-02T15:33:05.927Z,23.30
2023-03-02T15:35:32.926Z,24.70
2023-03-02T15:38:07.599Z,21.40
2023-03-02T15:40:37.272Z,22.20
2023-03-02T15:43:09.624Z,20.30
2023-03-02T15:45:44.270Z,20.80
2023-03-02T15:50:40.396Z,20.80
2023-03-02T15:53:07.148Z,18.30
2023-03-02T16:00:31.132Z,18.60
2023-03-02T16:02:58.179Z,18.90
2023-03-02T16:05:25.350Z,17.60
2023-03-02T16:07:52.542Z,15.30
2023-03-02T16:10:20.712Z,15.00
2023-03-02T16:12:47.657Z,15.70
2023-03-02T16:15:20.019Z,15.80
2023-03-02T16:17:46.931Z,15.30
2023-03-02T16:20:14.086Z,14.90
2023-03-02T16:22:40.956Z,16.10
2023-03-02T16:25:08.060Z,15.00
2023-03-02T16:27:34.887Z,14.20
2023-03-02T16:30:02.228Z,15.60
2023-03-02T16:32:30.323Z,14.30
2023-03-02T16:34:58.187Z,13.40
2023-03-02T16:37:25.171Z,13.20
2023-03-02T16:39:51.992Z,12.10
2023-03-02T16:42:18.839Z,11.00
2023-03-02T16:44:46.028Z,10.50
2023-03-02T16:47:12.723Z,10.40
2023-03-02T16:49:39.424Z,10.50
2023-03-02T16:52:06.141Z,11.10
2023-03-02T16:54:32.826Z,10.70
2023-03-02T16:56:59.560Z,8.70
2023-03-02T16:59:26.224Z,9.00
2023-03-02T17:01:52.981Z,8.40
2023-03-02T17:04:21.288Z,8.90
2023-03-02T17:07:03.649Z,8.40
2023-03-02T17:09:30.839Z,7.70
2023-03-02T17:11:57.691Z,8.10
2023-03-02T17:14:24.560Z,8.00
2023-03-02T17:16:51.307Z,7.70
2023-03-02T17:19:18.006Z,7.60
2023-03-02T17:21:44.732Z,9.20
2023-03-02T17:24:11.608Z,8.90
2023-03-02T17:26:38.401Z,8.20
2023-03-02T17:29:08.750Z,6.80
2023-03-02T17:31:35.519Z,8.50
2023-03-02T17:34:02.328Z,6.70
2023-03-02T17:36:28.997Z,7.30
2023-03-02T17:38:55.657Z,8.00
2023-03-02T17:41:22.397Z,6.90
2023-03-02T17:43:49.106Z,6.70
2023-03-02T17:46:20.732Z,6.80
2023-03-02T17:48:49.494Z,6.70
2023-03-02T17:51:17.231Z,6.30
2023-03-02T17:53:46.043Z,6.20
2023-03-02T17:56:15.016Z,6.40
2023-03-02T17:58:45.306Z,6.00
2023-03-02T18:01:13.472Z,5.90
2023-03-02T18:03:40.244Z,6.80
2023-03-02T18:06:07.182Z,6.10
2023-03-02T18:08:33.907Z,6.30
2023-03-02T18:11:00.625Z,6.10
2023-03-02T18:13:27.374Z,6.10
2023-03-02T18:15:54.184Z,5.00
2023-03-02T18:18:21.007Z,5.60
2023-03-02T18:20:47.721Z,5.90
2023-03-02T18:23:14.504Z,5.80
2023-03-02T18:25:41.178Z,4.30
2023-03-02T18:28:07.869Z,5.40
2023-03-02T18:30:34.626Z,5.80
2023-03-02T18:33:01.582Z,5.30
2023-03-02T18:35:28.309Z,5.50
2023-03-02T18:37:55.083Z,5.20
2023-03-02T18:40:22.188Z,5.30
2023-03-02T18:42:48.901Z,5.30
2023-03-02T18:45:26.443Z,5.00
2023-03-02T18:47:53.261Z,5.70
2023-03-02T18:50:20.474Z,5.30
2023-03-02T18:52:49.027Z,5.90
2023-03-02T18:55:18.230Z,4.80
2023-03-02T18:57:45.303Z,6.20
2023-03-02T19:00:17.276Z,4.20
2023-03-02T19:02:44.101Z,5.10
2023-03-02T19:05:11.034Z,5.30
2023-03-02T19:07:37.782Z,5.10
2023-03-02T19:10:05.008Z,5.10
2023-03-02T19:12:31.638Z,5.10
2023-03-02T19:14:59.226Z,5.10
2023-03-02T19:17:25.916Z,5.40
2023-03-02T19:19:52.833Z,5.40
2023-03-02T19:22:19.494Z,5.20
2023-03-02T19:24:46.769Z,5.10
2023-03-02T19:27:14.386Z,5.00
2023-03-02T19:29:41.399Z,4.70
2023-03-02T19:32:08.419Z,5.00
2023-03-02T19:34:35.133Z,4.90
2023-03-02T19:37:02.705Z,4.80
2023-03-02T19:39:29.368Z,4.60
2023-03-02T19:41:56.051Z,4.60
2023-03-02T19:44:25.594Z,4.70
2023-03-02T19:46:52.932Z,4.80
2023-03-02T19:49:19.635Z,4.50
2023-03-02T19:51:46.318Z,4.60
2023-03-02T19:54:13.002Z,4.80
2023-03-02T19:56:43.050Z,4.60
2023-03-02T19:59:11.142Z,4.40
2023-03-02T20:01:37.900Z,4.30
2023-03-02T20:04:05.242Z,4.70
2023-03-02T20:06:34.549Z,4.30
2023-03-02T20:09:04.197Z,4.30
2023-03-02T20:11:31.325Z,4.20
2023-03-02T20:14:04.947Z,4.00
2023-03-02T20:16:34.244Z,4.20
2023-03-02T20:19:01.961Z,4.10
2023-03-02T20:21:32.848Z,4.00
2023-03-02T20:23:59.723Z,4.00
2023-03-02T20:26:27.365Z,3.90
2023-03-02T20:28:56.766Z,4.00
2023-03-02T20:31:24.842Z,4.20
2023-03-02T20:33:54.298Z,4.00
2023-03-02T20:36:28.072Z,4.00
2023-03-02T20:38:59.540Z,4.10
2023-03-02T20:41:26.498Z,4.00
2023-03-02T20:43:53.512Z,3.90
2023-03-02T20:46:27.123Z,3.80
2023-03-02T20:48:54.315Z,3.70
2023-03-02T20:51:22.216Z,3.50
2023-03-02T20:53:48.989Z,3.50
2023-03-02T20:56:18.188Z,3.50
2023-03-02T20:58:46.678Z,3.60
2023-03-02T21:01:15.504Z,3.70
2023-03-02T21:03:44.810Z,3.70
2023-03-02T21:06:12.930Z,3.40
2023-03-02T21:08:40.946Z,3.20
2023-03-02T21:11:10.644Z,3.20
2023-03-02T21:13:39.138Z,3.10
2023-03-02T21:16:08.494Z,3.10
2023-03-02T21:18:35.384Z,3.10
2023-03-02T21:21:02.833Z,3.10
2023-03-02T21:23:30.022Z,3.20
2023-03-02T21:25:57.095Z,3.00
2023-03-02T21:28:23.767Z,3.00
2023-03-02T21:30:50.545Z,2.70
2023-03-02T21:33:17.229Z,2.50
2023-03-02T21:35:46.311Z,2.30
2023-03-02T21:38:13.091Z,2.50
2023-03-02T21:40:45.676Z,2.30
2023-03-02T21:43:14.193Z,2.60
2023-03-02T21:45:41.128Z,2.30
2023-03-02T21:48:08.631Z,2.30
2023-03-02T21:50:37.934Z,2.50
2023-03-02T21:53:05.703Z,2.40
2023-03-02T21:55:33.030Z,2.40
2023-03-02T21:57:59.846Z,2.50
2023-03-02T22:00:35.803Z,2.30
2023-03-02T22:03:03.521Z,2.40
2023-03-02T22:05:30.851Z,2.30
2023-03-02T22:07:57.827Z,2.10
2023-03-02T22:10:45.162Z,2.00
2023-03-02T22:13:30.509Z,2.00
2023-03-02T22:16:12.700Z,1.90
2023-03-02T22:18:39.711Z,1.90
